createdAt,value
2022-11-29T00:01:12.050Z,47.90
2022-11-29T00:06:32.280Z,53.13
2022-11-29T00:09:06.708Z,55.83
2022-11-29T00:17:53.346Z,43.65
2022-11-29T00:20:23.234Z,48.20
2022-11-29T00:22:59.901Z,52.08
2022-11-29T00:25:40.499Z,46.47
2022-11-29T00:28:13.556Z,50.60
2022-11-29T00:30:41.616Z,46.47
2022-11-29T00:33:08.816Z,47.65
2022-11-29T00:35:37.897Z,53.80
2022-11-29T00:38:10.032Z,76.53
2022-11-29T00:40:39.226Z,118.22
2022-11-29T00:43:08.704Z,200.95
2022-11-29T00:45:38.144Z,158.40
2022-11-29T00:48:08.023Z,171.85
2022-11-29T00:50:35.541Z,108.05
2022-11-29T00:53:02.767Z,120.55
2022-11-29T00:55:33.237Z,89.72
2022-11-29T00:58:08.241Z,85.43
2022-11-29T01:00:56.063Z,109.45
2022-11-29T01:03:25.969Z,66.22
2022-11-29T01:06:04.958Z,71.40
2022-11-29T01:08:35.453Z,127.40
2022-11-29T01:11:08.259Z,102.32
2022-11-29T01:13:49.001Z,72.32
2022-11-29T01:16:27.106Z,64.50
2022-11-29T01:18:59.963Z,88.15
2022-11-29T01:21:31.842Z,56.97
2022-11-29T01:24:03.611Z,37.13
2022-11-29T01:26:34.583Z,60.47
2022-11-29T01:29:07.261Z,36.58
2022-11-29T01:31:49.278Z,54.35
2022-11-29T01:34:19.936Z,30.75
2022-11-29T01:36:55.843Z,29.88
2022-11-29T01:39:23.286Z,41.45
2022-11-29T01:42:02.376Z,35.13
2022-11-29T01:44:33.592Z,32.70
2022-11-29T01:47:05.951Z,35.13
2022-11-29T01:49:46.526Z,43.38
2022-11-29T01:52:33.113Z,29.95
2022-11-29T01:55:06.865Z,29.92
2022-11-29T01:57:35.265Z,28.50
2022-11-29T02:00:12.431Z,55.13
2022-11-29T02:03:07.021Z,61.45
2022-11-29T02:05:35.085Z,58.00
2022-11-29T02:08:02.931Z,106.40
2022-11-29T02:11:14.894Z,54.85
2022-11-29T02:14:28.152Z,87.90
2022-11-29T02:17:11.056Z,71.25
2022-11-29T02:20:06.826Z,131.52
2022-11-29T02:23:11.142Z,116.63
2022-11-29T02:26:08.576Z,141.65
2022-11-29T02:29:03.357Z,153.43
2022-11-29T02:32:10.322Z,142.07
2022-11-29T02:35:34.979Z,123.00
2022-11-29T02:38:11.181Z,164.70
2022-11-29T02:41:03.525Z,108.00
2022-11-29T02:43:50.769Z,154.82
2022-11-29T02:46:38.373Z,217.07
2022-11-29T02:49:34.234Z,171.60
2022-11-29T02:52:19.912Z,84.18
2022-11-29T02:55:29.970Z,104.07
2022-11-29T03:00:33.206Z,94.32
2022-11-29T03:03:28.412Z,150.48
2022-11-29T03:06:33.488Z,154.68
2022-11-29T03:09:14.414Z,116.18
2022-11-29T03:12:03.633Z,197.75
2022-11-29T03:15:10.665Z,173.65
2022-11-29T03:18:02.683Z,135.05
2022-11-29T03:20:48.161Z,196.02
2022-11-29T03:23:53.744Z,190.32
2022-11-29T03:26:44.256Z,82.03
2022-11-29T03:30:08.822Z,109.78
2022-11-29T03:33:01.928Z,78.20
2022-11-29T03:35:48.240Z,113.72
2022-11-29T03:38:43.785Z,86.47
2022-11-29T03:41:31.871Z,68.70
2022-11-29T03:44:18.073Z,42.30
2022-11-29T03:47:03.716Z,59.22
2022-11-29T03:50:14.733Z,63.38
2022-11-29T03:52:55.604Z,41.35
2022-11-29T03:55:55.523Z,54.43
2022-11-29T03:59:10.802Z,42.17
2022-11-29T04:02:12.507Z,35.15
2022-11-29T04:04:45.537Z,65.25
2022-11-29T04:08:01.090Z,30.45
2022-11-29T04:10:47.836Z,46.45
2022-11-29T04:13:36.817Z,62.58
2022-11-29T04:16:26.279Z,64.82
2022-11-29T04:19:42.521Z,50.22
2022-11-29T04:22:44.260Z,94.28
2022-11-29T04:26:07.005Z,76.20
2022-11-29T04:29:08.154Z,112.22
2022-11-29T04:32:05.681Z,116.05
2022-11-29T04:35:29.371Z,93.43
2022-11-29T04:38:14.744Z,60.17
2022-11-29T04:41:07.425Z,81.32
2022-11-29T04:44:00.336Z,69.80
2022-11-29T04:47:05.795Z,58.05
2022-11-29T04:50:15.339Z,49.58
2022-11-29T04:53:13.302Z,72.13
2022-11-29T04:55:57.064Z,55.40
2022-11-29T04:58:39.866Z,116.85
2022-11-29T05:01:32.536Z,72.30
2022-11-29T05:04:23.020Z,141.18
2022-11-29T05:07:30.014Z,162.70
2022-11-29T05:10:34.744Z,101.10
2022-11-29T05:13:23.697Z,124.75
2022-11-29T05:16:16.686Z,120.63
2022-11-29T05:19:40.318Z,116.20
2022-11-29T05:22:45.877Z,215.38
2022-11-29T05:25:40.713Z,170.73
2022-11-29T05:32:27.991Z,174.88
2022-11-29T05:35:31.983Z,124.20
2022-11-29T05:38:34.326Z,226.05
2022-11-29T05:41:36.838Z,133.93
2022-11-29T05:44:20.055Z,142.57
2022-11-29T05:47:41.215Z,292.30
2022-11-29T05:54:08.549Z,105.40
2022-11-29T05:57:20.245Z,206.32
2022-11-29T06:00:14.981Z,255.68
2022-11-29T06:03:13.323Z,135.85
2022-11-29T06:05:47.717Z,141.63
2022-11-29T06:09:08.119Z,143.60
2022-11-29T06:12:02.528Z,114.50
2022-11-29T06:15:28.281Z,138.40
2022-11-29T06:18:18.994Z,104.90
2022-11-29T06:21:00.001Z,138.52
2022-11-29T06:24:02.748Z,102.65
2022-11-29T06:27:40.978Z,245.65
2022-11-29T06:31:14.428Z,184.40
2022-11-29T06:34:13.530Z,179.00
2022-11-29T06:37:28.300Z,148.80
2022-11-29T06:40:08.931Z,100.50
2022-11-29T06:42:43.105Z,99.18
2022-11-29T06:45:29.800Z,138.68
2022-11-29T06:48:15.766Z,87.03
2022-11-29T06:52:17.097Z,56.65
2022-11-29T06:55:20.059Z,75.03
2022-11-29T06:58:43.449Z,62.83
2022-11-29T07:02:06.597Z,43.58
2022-11-29T07:05:12.833Z,55.47
2022-11-29T07:07:50.071Z,34.28
2022-11-29T07:11:01.853Z,59.53
2022-11-29T07:13:56.006Z,49.42
2022-11-29T07:16:46.415Z,41.47
2022-11-29T07:19:42.036Z,51.00
2022-11-29T07:22:32.425Z,41.58
2022-11-29T07:25:44.460Z,35.30
2022-11-29T07:32:14.101Z,54.05
2022-11-29T07:35:42.558Z,46.25
2022-11-29T07:39:26.390Z,44.80
2022-11-29T07:42:12.110Z,45.35
2022-11-29T07:45:12.554Z,63.83
2022-11-29T07:47:56.901Z,52.30
2022-11-29T07:50:29.349Z,59.38
2022-11-29T07:53:12.166Z,77.32
2022-11-29T07:55:50.452Z,83.72
2022-11-29T07:58:33.448Z,79.18
2022-11-29T08:01:07.106Z,71.22
2022-11-29T08:03:35.994Z,85.95
2022-11-29T08:06:14.028Z,86.75
2022-11-29T08:08:50.164Z,83.75
2022-11-29T08:11:31.236Z,81.45
2022-11-29T08:14:11.185Z,101.43
2022-11-29T08:16:48.823Z,102.03
2022-11-29T08:19:51.139Z,88.68
2022-11-29T08:22:36.014Z,105.93
2022-11-29T08:25:05.767Z,99.03
2022-11-29T08:27:38.504Z,103.35
2022-11-29T08:30:20.651Z,120.63
2022-11-29T08:33:08.947Z,142.45
2022-11-29T08:35:42.449Z,119.10
2022-11-29T08:38:12.547Z,142.38
2022-11-29T08:40:51.430Z,79.88
2022-11-29T08:43:32.379Z,115.00
2022-11-29T08:46:08.217Z,117.00
2022-11-29T08:48:37.954Z,102.60
2022-11-29T08:51:08.458Z,104.10
2022-11-29T08:53:52.117Z,134.18
2022-11-29T08:57:09.994Z,132.23
2022-11-29T08:59:16.224Z,142.02
2022-11-29T09:02:19.917Z,146.20
2022-11-29T09:04:47.333Z,145.10
2022-11-29T09:07:25.519Z,154.63
2022-11-29T09:10:08.662Z,182.00
2022-11-29T09:12:40.257Z,210.90
2022-11-29T09:15:10.320Z,137.38
2022-11-29T09:17:37.803Z,175.45
2022-11-29T09:20:11.191Z,117.35
2022-11-29T09:22:39.371Z,132.65
2022-11-29T09:25:16.665Z,156.23
2022-11-29T09:27:49.678Z,145.45
2022-11-29T09:30:40.760Z,122.22
2022-11-29T09:33:13.731Z,160.93
2022-11-29T09:35:45.499Z,125.78
2022-11-29T09:38:13.956Z,130.02
2022-11-29T09:40:57.620Z,115.10
2022-11-29T09:43:50.668Z,116.15
2022-11-29T09:46:42.108Z,145.02
2022-11-29T09:49:30.723Z,122.25
2022-11-29T09:52:28.129Z,100.68
2022-11-29T09:55:35.895Z,77.18
2022-11-29T09:58:16.859Z,65.55
2022-11-29T10:03:52.192Z,85.13
2022-11-29T10:06:36.903Z,86.85
2022-11-29T10:09:19.691Z,109.03
2022-11-29T10:12:30.519Z,85.10
2022-11-29T10:15:18.010Z,109.72
2022-11-29T10:18:26.068Z,75.60
2022-11-29T10:21:15.397Z,92.07
2022-11-29T10:23:58.039Z,81.30
2022-11-29T10:26:29.292Z,74.35
2022-11-29T10:29:02.160Z,59.90
2022-11-29T10:31:36.188Z,63.05
2022-11-29T10:34:24.539Z,74.43
2022-11-29T10:37:07.672Z,59.00
2022-11-29T10:39:46.805Z,57.83
2022-11-29T10:42:51.413Z,70.50
2022-11-29T10:45:40.470Z,74.13
2022-11-29T10:48:15.835Z,91.30
2022-11-29T10:50:48.817Z,79.38
2022-11-29T10:53:25.030Z,76.93
2022-11-29T10:56:01.635Z,63.85
2022-11-29T10:58:36.491Z,85.63
2022-11-29T11:01:14.095Z,80.32
2022-11-29T11:03:51.510Z,81.45
2022-11-29T11:06:46.082Z,70.38
2022-11-29T11:09:42.774Z,78.07
2022-11-29T11:12:16.762Z,96.43
2022-11-29T11:14:53.766Z,83.25
2022-11-29T11:17:33.417Z,77.82
2022-11-29T11:20:11.206Z,92.10
2022-11-29T11:22:59.461Z,84.38
2022-11-29T11:25:51.677Z,68.32
2022-11-29T11:28:43.216Z,64.35
2022-11-29T11:31:11.943Z,59.00
2022-11-29T11:33:42.310Z,68.07
2022-11-29T11:36:27.450Z,72.78
2022-11-29T11:39:19.662Z,77.15
2022-11-29T11:42:10.130Z,79.35
2022-11-29T11:45:04.755Z,76.43
2022-11-29T11:47:45.382Z,82.68
2022-11-29T11:50:59.360Z,79.22
2022-11-29T11:53:44.231Z,70.55
2022-11-29T11:56:26.022Z,68.82
2022-11-29T11:59:01.220Z,71.78
2022-11-29T12:01:39.442Z,72.35
2022-11-29T12:04:16.058Z,96.32
2022-11-29T12:06:58.746Z,82.18
2022-11-29T12:09:45.036Z,78.90
2022-11-29T12:12:25.492Z,82.50
2022-11-29T12:15:08.247Z,81.43
2022-11-29T12:17:44.077Z,80.43
2022-11-29T12:20:31.496Z,70.20
2022-11-29T12:23:18.913Z,95.63
2022-11-29T12:26:04.953Z,79.90
2022-11-29T12:28:40.446Z,88.53
2022-11-29T12:31:35.304Z,90.43
2022-11-29T12:35:16.091Z,85.18
2022-11-29T12:38:26.176Z,74.65
2022-11-29T12:41:32.860Z,82.22
2022-11-29T12:49:35.442Z,79.43
2022-11-29T12:52:29.092Z,83.68
2022-11-29T12:55:08.485Z,71.05
2022-11-29T12:57:47.001Z,76.13
2022-11-29T13:01:06.774Z,87.65
2022-11-29T13:08:10.530Z,71.20
2022-11-29T13:10:57.513Z,69.22
2022-11-29T13:16:47.580Z,69.65
2022-11-29T13:19:26.278Z,69.20
2022-11-29T13:22:43.107Z,65.38
2022-11-29T13:25:15.718Z,72.10
2022-11-29T13:28:41.465Z,62.72
2022-11-29T13:31:34.696Z,68.63
2022-11-29T13:34:23.328Z,72.22
2022-11-29T13:36:55.942Z,83.15
2022-11-29T13:39:30.010Z,74.97
2022-11-29T13:42:34.558Z,73.80
2022-11-29T13:45:29.632Z,81.65
2022-11-29T13:48:04.879Z,91.03
2022-11-29T13:50:50.077Z,77.90
2022-11-29T13:54:53.200Z,84.45
2022-11-29T13:56:50.732Z,79.97
2022-11-29T13:59:36.492Z,88.68
2022-11-29T14:02:33.009Z,89.40
2022-11-29T14:05:08.088Z,76.38
2022-11-29T14:07:40.367Z,79.25
2022-11-29T14:10:29.359Z,80.07
2022-11-29T14:13:00.138Z,81.47
2022-11-29T14:15:33.887Z,84.28
2022-11-29T14:18:30.564Z,86.35
2022-11-29T14:21:01.217Z,77.63
2022-11-29T14:23:36.846Z,93.55
2022-11-29T14:26:34.014Z,82.38
2022-11-29T14:31:55.953Z,87.47
2022-11-29T14:34:48.859Z,98.95
2022-11-29T14:37:54.340Z,94.25
2022-11-29T14:40:41.765Z,91.68
2022-11-29T14:43:25.051Z,92.20
2022-11-29T14:46:17.017Z,91.07
2022-11-29T14:51:37.498Z,81.35
2022-11-29T14:54:34.964Z,70.05
2022-11-29T14:57:43.616Z,84.88
2022-11-29T15:00:30.863Z,85.70
2022-11-29T15:03:33.168Z,76.40
2022-11-29T15:06:44.078Z,73.95
2022-11-29T15:09:29.118Z,73.93
2022-11-29T15:12:20.147Z,83.97
2022-11-29T15:15:14.631Z,82.50
2022-11-29T15:18:14.465Z,78.28
2022-11-29T15:21:17.487Z,80.60
2022-11-29T15:24:03.133Z,70.95
2022-11-29T15:26:40.095Z,67.13
2022-11-29T15:29:21.833Z,72.45
2022-11-29T15:31:58.363Z,73.03
2022-11-29T15:34:47.848Z,74.63
2022-11-29T15:37:37.589Z,67.28
2022-11-29T15:40:17.688Z,71.03
2022-11-29T15:43:02.029Z,69.25
2022-11-29T15:46:00.049Z,64.53
2022-11-29T15:48:36.841Z,69.75
2022-11-29T15:51:22.636Z,70.85
2022-11-29T15:54:17.930Z,58.17
2022-11-29T15:57:06.271Z,54.00
2022-11-29T15:59:51.160Z,55.03
2022-11-29T16:02:37.890Z,92.05
2022-11-29T16:05:37.965Z,58.30
2022-11-29T16:08:35.622Z,61.22
2022-11-29T16:11:27.985Z,74.15
2022-11-29T16:14:27.492Z,55.80
2022-11-29T16:20:25.677Z,69.88
2022-11-29T16:23:13.344Z,68.57
2022-11-29T16:26:22.435Z,72.70
2022-11-29T16:28:59.922Z,71.43
2022-11-29T16:31:34.924Z,73.18
2022-11-29T16:34:35.051Z,68.82
2022-11-29T16:40:30.113Z,71.80
2022-11-29T16:43:35.074Z,81.53
2022-11-29T16:46:43.084Z,100.75
2022-11-29T16:49:53.232Z,70.22
2022-11-29T16:52:36.807Z,79.28
2022-11-29T16:55:17.809Z,71.95
2022-11-29T16:57:52.576Z,72.88
2022-11-29T17:00:34.314Z,79.78
2022-11-29T17:03:09.091Z,74.13
2022-11-29T17:06:01.223Z,84.85
2022-11-29T17:08:40.249Z,73.70
2022-11-29T17:11:23.104Z,74.40
2022-11-29T17:14:06.761Z,71.13
2022-11-29T17:19:36.030Z,78.78
2022-11-29T17:22:47.903Z,72.95
2022-11-29T17:25:26.795Z,72.80
2022-11-29T17:28:16.233Z,66.78
2022-11-29T17:31:02.028Z,83.93
2022-11-29T17:33:41.265Z,69.57
2022-11-29T17:36:22.843Z,69.07
2022-11-29T17:39:15.690Z,95.85
2022-11-29T17:42:08.645Z,97.47
2022-11-29T17:45:05.265Z,66.63
2022-11-29T17:50:41.178Z,68.35
2022-11-29T17:56:27.081Z,86.10
2022-11-29T17:59:14.729Z,86.88
2022-11-29T18:02:39.999Z,69.55
2022-11-29T18:05:30.167Z,70.53
2022-11-29T18:08:08.035Z,74.57
2022-11-29T18:10:39.921Z,80.38
2022-11-29T18:13:26.650Z,71.55
2022-11-29T18:16:13.384Z,69.85
2022-11-29T18:19:07.790Z,72.30
2022-11-29T18:21:42.224Z,81.57
2022-11-29T18:24:16.012Z,71.72
2022-11-29T18:26:59.534Z,64.55
2022-11-29T18:29:38.895Z,66.70
2022-11-29T18:32:27.310Z,86.55
2022-11-29T18:35:13.432Z,78.00
2022-11-29T18:38:13.972Z,75.82
2022-11-29T18:41:02.717Z,58.92
2022-11-29T18:47:00.614Z,61.55
2022-11-29T18:50:15.806Z,67.70
2022-11-29T18:53:06.508Z,75.35
2022-11-29T18:55:49.937Z,78.10
2022-11-29T18:59:08.522Z,73.45
2022-11-29T19:08:21.475Z,72.35
2022-11-29T19:11:36.770Z,79.10
2022-11-29T19:14:20.002Z,77.05
2022-11-29T19:17:29.701Z,74.00
2022-11-29T19:21:25.326Z,88.88
2022-11-29T19:24:17.413Z,78.70
2022-11-29T19:27:26.516Z,87.10
2022-11-29T19:30:14.039Z,86.18
2022-11-29T19:35:44.315Z,77.22
2022-11-29T19:38:48.776Z,81.30
2022-11-29T19:41:55.569Z,83.13
2022-11-29T19:48:09.281Z,72.10
2022-11-29T20:02:01.841Z,62.40
2022-11-29T20:15:39.783Z,72.22
2022-11-29T20:18:14.113Z,81.57
2022-11-29T20:21:13.207Z,59.15
2022-11-29T20:24:20.272Z,69.43
2022-11-29T20:30:44.522Z,77.00
2022-11-29T20:33:46.106Z,67.93
2022-11-29T20:41:12.670Z,61.95
2022-11-29T20:52:17.967Z,64.32
2022-11-29T20:56:16.528Z,53.78
2022-11-29T20:59:19.263Z,62.28
2022-11-29T21:06:34.723Z,62.10
2022-11-29T21:10:32.373Z,65.53
2022-11-29T21:18:09.209Z,78.15
2022-11-29T21:25:11.580Z,53.42
2022-11-29T21:28:46.452Z,58.15
2022-11-29T21:31:48.751Z,60.55
2022-11-29T21:35:20.796Z,57.57
2022-11-29T21:37:49.665Z,57.00
2022-11-29T21:40:46.013Z,61.35
2022-11-29T21:44:05.350Z,61.85
2022-11-29T21:47:03.757Z,63.90
2022-11-29T21:50:02.735Z,75.45
2022-11-29T21:52:48.752Z,58.05
2022-11-29T21:55:54.823Z,61.95
2022-11-29T22:04:34.537Z,73.45
2022-11-29T22:07:11.032Z,54.03
2022-11-29T22:10:17.033Z,62.15
2022-11-29T22:12:59.914Z,71.70
2022-11-29T22:18:35.634Z,61.75
2022-11-29T22:21:35.991Z,77.05
2022-11-29T22:24:16.812Z,77.80
2022-11-29T22:27:13.774Z,66.45
2022-11-29T22:41:39.662Z,65.95
2022-11-29T22:45:34.928Z,65.10
2022-11-29T22:56:16.114Z,57.00
2022-11-29T22:56:27.905Z,58.83
2022-11-29T23:02:47.064Z,68.32
2022-11-29T23:22:39.294Z,69.43
2022-11-29T23:29:14.907Z,68.00
2022-11-29T23:32:06.044Z,63.00
2022-11-29T23:34:37.454Z,58.70
2022-11-29T23:38:15.686Z,77.60
2022-11-29T23:49:50.898Z,70.85
2022-11-29T23:53:19.507Z,70.40
